Élőkép

Információk

Albatrosz Repülő Egyesület
8000 Székesfehérvár,
Radványi utca 6.

Adószám:
19092908-2-07

Bankszámla szám:
Budapest Bank
10102952-01361819-00000001

Telefon: +36 30 9598-897

Telephey: Börgönd repülőtér

Börgöndi repülõtér

LHBP METAR/TAF

[source: ADDS]
METAR
TAF LHBP 210500Z 2106/2206 29017KT 9999 SCT033 TEMPO 2106/2110 CAVOK TEMPO 2106/2115 31025G35KT BECMG 2113/2116 CAVOK BECMG 2116/2119 29011KT TEMPO 2123/2206 26006KT 9999 SCT040 BKN055 TAF
TAF LHBP 210500Z 2106/2206 29017KT 9999 SCT033 TEMPO 2106/2110 CAVOK TEMPO 2106/2115 31025G35KT BECMG 2113/2116 CAVOK BECMG 2116/2119 29011KT TEMPO 2123/2206 26006KT 9999 SCT040 BKN055 =
SR / SS: 06:30 / 15:01 UTC (Börgönd 2014-12-21)
Hungarian Chinese (Simplified) Croatian Czech English Finnish French German Hebrew Italian Japanese Polish Portuguese Romanian Russian Serbian Slovak Slovenian Spanish

Belépés tagoknak